KINT

Smith Reynolds Airport

Winston Salem, North Carolina, USA
KINT 212335Z 2200/2224 VRB05KT P6SM FEW250 FM221800 17007KT P6SM FEW250
Issued Valid From Valid To
Jan-21 @ 23:35 UTC
(an hour ago)
Jan-22 @ 00:00 UTC
(50 minutes ago)
Jan-23 @ 00:00 UTC
(in 23 hours)
Jan-22 @ 00:00 to Jan-22 @ 18:00
KINT 212335Z 2200/2224 VRB05KT P6SM FEW250
Wind Visibility Clouds
Variable at 5 knots Greater than 6 miles
  • Few at 25,000' AGL
From Jan-22 @ 18:00 to Jan-23 @ 00:00
FM221800 17007KT P6SM FEW250
Wind Visibility Clouds
170° at 7 knots Greater than 6 miles
  • Few at 25,000' AGL
KINT 212335Z 2200/2224 VRB05KT P6SM FEW250 FM221800 17007KT P6SM FEW250
Issued Jan-21 @ 23:35 UTC
(an hour ago)
Valid From Jan-22 @ 00:00 UTC
(50 minutes ago)
Valid To Jan-23 @ 00:00 UTC
(in 23 hours)
Jan-22 @ 00:00 - Jan-22 @ 18:00
Wind Visibility
Variable at 5 knots Greater than 6 miles
Clouds
  • Few at 25,000' AGL
From Jan-22 @ 18:00 - Jan-23 @ 00:00
Wind Visibility
170° at 7 knots Greater than 6 miles
Clouds
  • Few at 25,000' AGL